createdAt,value
2022-10-11T00:03:52.169Z,99054.42
2022-10-11T00:14:19.843Z,99049.73
2022-10-11T00:24:47.474Z,99049.59
2022-10-11T00:35:15.093Z,99051.67
2022-10-11T00:46:28.150Z,99052.48
2022-10-11T00:57:01.620Z,99056.96
2022-10-11T01:07:31.525Z,99057.61
2022-10-11T01:18:05.432Z,99054.39
2022-10-11T01:28:50.315Z,99057.48
2022-10-11T01:39:27.098Z,99055.20
2022-10-11T01:49:59.205Z,99061.54
2022-10-11T02:00:30.453Z,99065.26
2022-10-11T02:11:03.604Z,99065.89
2022-10-11T02:21:34.669Z,99064.95
2022-10-11T02:32:03.026Z,99067.73
2022-10-11T02:42:37.845Z,99069.36
2022-10-11T02:53:05.775Z,99070.05
2022-10-11T03:03:33.317Z,99072.63
2022-10-11T03:14:00.827Z,99077.80
2022-10-11T03:24:28.405Z,99093.91
2022-10-11T03:34:55.989Z,99091.48
2022-10-11T03:45:23.682Z,99104.98
2022-10-11T03:55:55.417Z,99106.52
2022-10-11T04:06:22.994Z,99109.23
2022-10-11T04:16:50.529Z,99113.29
2022-10-11T04:27:18.141Z,99125.95
2022-10-11T04:37:45.818Z,99135.66
2022-10-11T04:48:14.134Z,99145.70
2022-10-11T04:58:42.457Z,99148.48
2022-10-11T05:09:10.106Z,99155.85
2022-10-11T05:19:37.722Z,99166.52
2022-10-11T05:30:06.217Z,99167.73
2022-10-11T05:40:33.782Z,99185.08
2022-10-11T05:51:06.039Z,99193.71
2022-10-11T06:01:33.802Z,99203.80
2022-10-11T06:12:01.709Z,99226.52
2022-10-11T06:22:29.835Z,99247.58
2022-10-11T06:33:00.037Z,99261.95
2022-10-11T06:43:31.620Z,99262.40
2022-10-11T06:54:02.076Z,99272.42
2022-10-11T07:04:30.192Z,99282.48
2022-10-11T07:14:56.226Z,99287.15
2022-10-11T07:25:23.817Z,99299.68
2022-10-11T07:35:52.058Z,99314.33
2022-10-11T07:46:20.169Z,99328.16
2022-10-11T07:56:47.896Z,99333.52
2022-10-11T08:07:15.582Z,99331.88
2022-10-11T08:17:43.439Z,99341.77
2022-10-11T08:28:15.860Z,99349.67
2022-10-11T08:38:44.002Z,99364.68
2022-10-11T08:49:15.084Z,99381.10
2022-10-11T08:59:49.755Z,99387.15
2022-10-11T09:10:45.637Z,99395.80
2022-10-11T09:21:22.240Z,99407.77
2022-10-11T09:31:54.273Z,99414.55
2022-10-11T09:42:21.914Z,99425.18
2022-10-11T09:52:54.093Z,99430.13
2022-10-11T10:03:31.930Z,99441.66
2022-10-11T10:13:59.809Z,99449.71
2022-10-11T10:24:39.433Z,99454.45
2022-10-11T10:35:14.690Z,99458.67
2022-10-11T10:45:58.519Z,99464.10
2022-10-11T10:56:34.714Z,99470.26
2022-10-11T11:07:14.521Z,99470.23
2022-10-11T11:17:56.693Z,99472.09
2022-10-11T11:28:42.565Z,99471.13
2022-10-11T11:39:18.142Z,99474.20
2022-10-11T11:49:48.997Z,99470.30
2022-10-11T12:00:21.648Z,99470.18
2022-10-11T12:11:01.600Z,99470.08
2022-10-11T12:21:33.547Z,99463.61
2022-10-11T12:32:50.361Z,99455.96
2022-10-11T12:43:33.776Z,99451.46
2022-10-11T12:54:27.528Z,99444.82
2022-10-11T13:05:16.700Z,99447.39
2022-10-11T13:15:45.777Z,99458.69
2022-10-11T13:26:14.258Z,99454.96
2022-10-11T13:36:42.421Z,99446.79
2022-10-11T13:47:14.461Z,99444.00
2022-10-11T13:57:46.007Z,99440.79
2022-10-11T14:08:26.148Z,99441.16
2022-10-11T14:19:03.417Z,99443.27
2022-10-11T14:29:33.001Z,99445.71
2022-10-11T14:40:01.120Z,99451.98
2022-10-11T14:50:41.694Z,99453.44
2022-10-11T15:01:11.457Z,99460.35
2022-10-11T15:11:40.263Z,99459.78
2022-10-11T15:22:07.797Z,99465.58
2022-10-11T15:32:35.327Z,99474.90
2022-10-11T15:43:03.609Z,99489.04
2022-10-11T15:53:32.411Z,99503.11
2022-10-11T16:04:00.000Z,99510.41
2022-10-11T16:14:27.731Z,99513.56
2022-10-11T16:24:55.781Z,99527.33
2022-10-11T16:35:21.801Z,99537.95
2022-10-11T16:45:49.462Z,99541.34
2022-10-11T16:56:18.118Z,99551.81
2022-10-11T17:06:45.989Z,99557.38
2022-10-11T17:17:14.254Z,99565.73
2022-10-11T17:27:41.845Z,99573.98
2022-10-11T17:38:09.419Z,99581.59
2022-10-11T17:48:36.902Z,99584.59
2022-10-11T17:59:04.529Z,99584.95
2022-10-11T18:09:32.660Z,99587.21
2022-10-11T18:19:58.605Z,99592.59
2022-10-11T18:30:26.362Z,99594.79
2022-10-11T18:40:53.906Z,99590.91
2022-10-11T18:51:23.616Z,99598.19
2022-10-11T19:01:52.715Z,99590.12
2022-10-11T19:12:20.858Z,99598.88
2022-10-11T19:22:48.844Z,99608.19
2022-10-11T19:33:16.459Z,99617.77
2022-10-11T19:43:44.458Z,99623.05
2022-10-11T19:54:14.879Z,99628.58
2022-10-11T20:04:57.770Z,99628.97
2022-10-11T20:15:25.342Z,99622.88
2022-10-11T20:26:01.629Z,99623.20
2022-10-11T20:36:30.612Z,99632.42
2022-10-11T20:47:03.030Z,99636.30
2022-10-11T20:57:32.982Z,99640.80
2022-10-11T21:08:00.968Z,99641.60
2022-10-11T21:18:28.590Z,99645.89
2022-10-11T21:28:56.462Z,99648.05
2022-10-11T21:39:24.345Z,99651.64
2022-10-11T21:49:51.922Z,99651.50
2022-10-11T22:00:19.432Z,99649.14
2022-10-11T22:10:53.850Z,99651.32
2022-10-11T22:21:23.319Z,99646.67
2022-10-11T22:31:50.828Z,99642.77
2022-10-11T22:42:18.398Z,99650.45
2022-10-11T22:52:45.959Z,99648.91
2022-10-11T23:03:17.568Z,99651.66
2022-10-11T23:13:45.225Z,99648.13
2022-10-11T23:24:12.986Z,99647.10
2022-10-11T23:34:40.574Z,99641.78
2022-10-11T23:45:09.776Z,99644.73
2022-10-11T23:55:37.455Z,99655.09
